createdAt,value
2023-04-26T00:01:10.420Z,8.07
2023-04-26T00:03:38.215Z,7.32
2023-04-26T00:06:05.822Z,7.43
2023-04-26T00:08:32.869Z,6.68
2023-04-26T00:10:59.475Z,5.75
2023-04-26T00:13:26.270Z,6.97
2023-04-26T00:15:53.271Z,6.18
2023-04-26T00:18:19.970Z,11.15
2023-04-26T00:20:46.550Z,6.40
2023-04-26T00:23:13.349Z,9.13
2023-04-26T00:25:40.531Z,6.57
2023-04-26T00:28:07.098Z,8.57
2023-04-26T00:30:39.350Z,9.20
2023-04-26T00:33:05.901Z,7.50
2023-04-26T00:35:32.657Z,6.68
2023-04-26T00:38:01.508Z,6.25
2023-04-26T00:40:31.156Z,7.50
2023-04-26T00:43:02.712Z,9.25
2023-04-26T00:45:29.436Z,8.63
2023-04-26T00:47:56.949Z,8.18
2023-04-26T00:50:23.834Z,7.65
2023-04-26T00:52:51.078Z,5.80
2023-04-26T00:55:19.319Z,6.18
2023-04-26T00:57:46.512Z,4.65
2023-04-26T01:00:13.708Z,7.18
2023-04-26T01:02:41.863Z,5.20
2023-04-26T01:05:09.506Z,10.20
2023-04-26T01:07:37.641Z,5.50
2023-04-26T01:10:05.798Z,7.38
2023-04-26T01:12:33.337Z,6.30
2023-04-26T01:15:01.524Z,6.07
2023-04-26T01:17:40.613Z,5.72
2023-04-26T01:20:10.772Z,7.82
2023-04-26T01:22:37.707Z,6.32
2023-04-26T01:25:07.724Z,7.43
2023-04-26T01:27:36.935Z,5.18
2023-04-26T01:32:47.121Z,8.10
2023-04-26T01:35:14.364Z,5.10
2023-04-26T01:37:41.454Z,6.18
2023-04-26T01:40:08.969Z,7.53
2023-04-26T01:42:35.819Z,5.70
2023-04-26T01:45:02.609Z,8.98
2023-04-26T01:47:29.198Z,7.82
2023-04-26T01:49:56.114Z,7.75
2023-04-26T01:52:23.330Z,8.60
2023-04-26T01:54:49.826Z,5.43
2023-04-26T01:57:19.608Z,8.52
2023-04-26T01:59:46.110Z,9.05
2023-04-26T02:02:12.668Z,8.48
2023-04-26T02:04:39.349Z,6.50
2023-04-26T02:07:06.807Z,8.68
2023-04-26T02:09:33.461Z,9.10
2023-04-26T02:12:00.176Z,6.65
2023-04-26T02:14:27.085Z,7.72
2023-04-26T02:16:53.940Z,9.02
2023-04-26T02:19:21.046Z,7.90
2023-04-26T02:21:56.032Z,9.18
2023-04-26T02:24:23.518Z,9.38
2023-04-26T02:26:50.711Z,6.15
2023-04-26T02:29:17.624Z,7.63
2023-04-26T02:31:44.317Z,8.45
2023-04-26T02:34:10.861Z,6.05
2023-04-26T02:36:37.318Z,6.75
2023-04-26T02:39:04.003Z,9.38
2023-04-26T02:41:33.017Z,6.85
2023-04-26T02:44:10.276Z,11.00
2023-04-26T02:46:36.868Z,10.63
2023-04-26T02:49:03.362Z,10.02
2023-04-26T02:51:29.800Z,9.52
2023-04-26T02:53:56.375Z,10.45
2023-04-26T02:56:23.304Z,5.82
2023-04-26T02:58:50.656Z,11.10
2023-04-26T03:01:18.980Z,6.10
2023-04-26T03:03:47.349Z,8.80
2023-04-26T03:09:45.332Z,5.82
2023-04-26T03:15:14.000Z,7.40
2023-04-26T03:17:48.925Z,7.22
2023-04-26T03:20:15.412Z,10.50
2023-04-26T03:22:47.854Z,9.18
2023-04-26T03:25:16.194Z,7.13
2023-04-26T03:27:42.895Z,9.65
2023-04-26T03:30:09.819Z,8.85
2023-04-26T03:32:36.616Z,9.48
2023-04-26T03:35:03.204Z,9.77
2023-04-26T03:37:33.599Z,8.95
2023-04-26T03:40:00.194Z,9.15
2023-04-26T03:42:27.547Z,10.32
2023-04-26T03:44:54.777Z,11.02
2023-04-26T03:47:21.487Z,10.48
2023-04-26T03:49:48.144Z,8.85
2023-04-26T03:52:14.833Z,11.52
2023-04-26T03:54:41.655Z,10.82
2023-04-26T03:57:08.388Z,9.48
2023-04-26T03:59:35.457Z,10.43
2023-04-26T04:02:03.629Z,11.77
2023-04-26T04:04:30.330Z,13.88
2023-04-26T04:06:57.000Z,12.60
2023-04-26T04:09:24.118Z,11.43
2023-04-26T04:11:52.895Z,10.68
2023-04-26T04:14:24.665Z,9.98
2023-04-26T04:16:55.068Z,15.00
2023-04-26T04:19:24.667Z,11.55
2023-04-26T04:21:52.479Z,10.70
2023-04-26T04:24:22.823Z,11.98
2023-04-26T04:26:50.177Z,11.50
2023-04-26T04:29:16.790Z,17.67
2023-04-26T04:31:44.057Z,12.90
2023-04-26T04:34:10.724Z,10.80
2023-04-26T04:36:39.010Z,12.25
2023-04-26T04:39:09.856Z,13.45
2023-04-26T04:41:37.101Z,12.02
2023-04-26T04:44:04.912Z,14.20
2023-04-26T04:46:32.240Z,12.45
2023-04-26T04:49:04.853Z,11.75
2023-04-26T04:51:33.183Z,13.38
2023-04-26T04:54:02.485Z,13.48
2023-04-26T04:59:39.067Z,12.23
2023-04-26T05:02:05.595Z,12.75
2023-04-26T05:04:35.186Z,10.20
2023-04-26T05:07:12.894Z,12.30
2023-04-26T05:09:42.212Z,11.40
2023-04-26T05:14:40.853Z,10.80
2023-04-26T05:17:11.568Z,12.23
2023-04-26T05:19:47.343Z,14.45
2023-04-26T05:22:18.292Z,11.35
2023-04-26T05:24:47.189Z,14.48
2023-04-26T05:27:14.605Z,10.52
2023-04-26T05:29:41.856Z,11.35
2023-04-26T05:32:08.602Z,11.10
2023-04-26T05:34:35.453Z,12.57
2023-04-26T05:37:03.854Z,11.90
2023-04-26T05:45:01.308Z,8.70
2023-04-26T05:47:30.977Z,11.68
2023-04-26T05:49:57.469Z,11.68
2023-04-26T05:52:24.267Z,9.25
2023-04-26T05:54:54.074Z,11.88
2023-04-26T05:57:22.176Z,9.52
2023-04-26T05:59:48.796Z,10.80
2023-04-26T06:02:15.739Z,8.63
2023-04-26T06:49:16.220Z,5.32
2023-04-26T06:51:46.294Z,8.20
2023-04-26T06:54:17.984Z,5.68
2023-04-26T06:56:53.244Z,6.53
2023-04-26T06:59:27.099Z,7.35
2023-04-26T07:01:56.683Z,5.18
2023-04-26T07:04:23.509Z,6.88
2023-04-26T07:06:50.609Z,6.82
2023-04-26T07:09:17.486Z,4.32
2023-04-26T07:11:47.144Z,5.78
2023-04-26T07:14:13.637Z,5.18
2023-04-26T07:16:48.847Z,5.32
2023-04-26T07:43:47.370Z,6.07
2023-04-26T07:47:03.682Z,4.97
2023-04-26T07:49:30.203Z,6.28
2023-04-26T07:51:58.200Z,6.20
2023-04-26T07:54:24.674Z,6.50
2023-04-26T07:56:51.141Z,4.13
2023-04-26T07:59:25.392Z,6.07
2023-04-26T08:01:52.059Z,5.63
2023-04-26T08:04:33.783Z,6.07
2023-04-26T08:07:04.151Z,5.65
2023-04-26T08:09:30.885Z,4.97
2023-04-26T08:11:58.603Z,2.88
2023-04-26T08:14:25.188Z,2.67
2023-04-26T08:16:51.862Z,4.60
2023-04-26T08:19:18.450Z,5.40
2023-04-26T08:21:44.996Z,5.57
2023-04-26T08:24:29.384Z,3.65
2023-04-26T08:27:49.467Z,4.10
2023-04-26T08:38:42.490Z,4.15
2023-04-26T08:41:14.733Z,6.60
2023-04-26T08:43:41.533Z,2.33
2023-04-26T08:46:16.368Z,6.78
2023-04-26T08:52:29.011Z,3.30
2023-04-26T08:55:03.659Z,4.22
2023-04-26T08:57:33.644Z,5.88
2023-04-26T09:00:06.083Z,4.75
2023-04-26T09:02:36.951Z,4.10
2023-04-26T09:05:05.464Z,3.42
2023-04-26T09:08:18.436Z,3.42
2023-04-26T09:10:45.295Z,6.75
2023-04-26T09:13:13.316Z,3.17
2023-04-26T09:15:45.412Z,7.15
2023-04-26T09:18:23.150Z,5.25
2023-04-26T09:21:26.666Z,3.92
2023-04-26T09:24:15.060Z,6.85
2023-04-26T09:32:23.256Z,2.90
2023-04-26T09:49:04.254Z,2.85
2023-04-26T10:20:57.667Z,4.43
2023-04-26T10:23:34.196Z,4.53
2023-04-26T10:26:01.745Z,2.80
2023-04-26T10:32:24.416Z,4.40
2023-04-26T10:35:25.290Z,6.45
2023-04-26T10:38:01.041Z,6.50
2023-04-26T10:40:36.144Z,3.78
2023-04-26T10:43:11.524Z,4.22
2023-04-26T10:45:45.751Z,2.63
2023-04-26T10:48:28.079Z,5.05
2023-04-26T11:15:56.394Z,3.22
2023-04-26T11:18:25.751Z,3.88
2023-04-26T11:31:42.981Z,2.55
2023-04-26T11:52:27.829Z,3.92
2023-04-26T11:55:10.578Z,4.20
2023-04-26T11:57:47.309Z,4.28
2023-04-26T12:01:04.386Z,2.85
2023-04-26T12:03:41.722Z,3.67
2023-04-26T12:08:58.900Z,3.65
2023-04-26T12:11:34.177Z,2.92
2023-04-26T12:14:02.027Z,3.53
2023-04-26T12:18:59.942Z,6.03
2023-04-26T12:21:29.867Z,2.90
2023-04-26T12:23:59.083Z,4.35
2023-04-26T12:26:50.863Z,2.70
2023-04-26T12:30:20.727Z,4.85
2023-04-26T12:40:35.595Z,3.65
2023-04-26T12:49:21.161Z,6.10
2023-04-26T12:51:50.808Z,7.38
2023-04-26T12:54:23.930Z,4.57
2023-04-26T12:56:50.933Z,3.25
2023-04-26T12:59:17.456Z,1.88
2023-04-26T13:01:43.862Z,3.60
2023-04-26T13:06:53.596Z,4.93
2023-04-26T13:09:48.505Z,4.85
2023-04-26T13:12:23.329Z,3.40
2023-04-26T13:24:01.015Z,4.30
2023-04-26T13:26:32.054Z,5.40
2023-04-26T13:28:58.994Z,5.03
2023-04-26T13:31:33.595Z,2.90
2023-04-26T13:41:48.832Z,2.67
2023-04-26T13:44:15.843Z,8.80
2023-04-26T13:46:43.234Z,4.05
2023-04-26T13:49:12.774Z,3.60
2023-04-26T13:51:39.329Z,7.72
2023-04-26T13:54:06.075Z,4.68
2023-04-26T13:57:02.874Z,5.15
2023-04-26T13:59:30.287Z,4.15
2023-04-26T14:02:00.868Z,4.72
2023-04-26T14:30:27.987Z,4.45
2023-04-26T14:48:11.083Z,4.38
2023-04-26T14:50:38.291Z,3.47
2023-04-26T14:53:04.796Z,4.13
2023-04-26T14:55:31.188Z,4.95
2023-04-26T14:57:58.114Z,3.05
2023-04-26T15:00:30.337Z,5.30
2023-04-26T15:02:59.673Z,3.50
2023-04-26T15:05:41.248Z,3.42
2023-04-26T15:08:07.930Z,2.88
2023-04-26T15:10:39.211Z,3.70
2023-04-26T15:13:10.107Z,5.28
2023-04-26T15:15:40.223Z,4.35
2023-04-26T15:18:17.031Z,6.43
2023-04-26T15:20:47.425Z,3.00
2023-04-26T15:23:36.379Z,3.65
2023-04-26T15:29:10.990Z,3.10
2023-04-26T15:31:41.745Z,3.38
2023-04-26T15:34:38.779Z,3.50
2023-04-26T15:37:28.912Z,7.22
2023-04-26T15:43:12.261Z,4.65
2023-04-26T15:45:38.710Z,3.97
2023-04-26T15:48:18.435Z,6.60
2023-04-26T15:50:49.380Z,3.55
2023-04-26T15:53:31.951Z,3.83
2023-04-26T15:56:00.496Z,4.63
2023-04-26T15:58:28.127Z,5.35
2023-04-26T16:00:55.422Z,2.70
2023-04-26T16:03:23.257Z,5.18
2023-04-26T16:06:10.595Z,5.00
2023-04-26T16:08:46.359Z,5.13
2023-04-26T16:11:17.930Z,5.35
2023-04-26T16:21:12.933Z,3.55
2023-04-26T16:23:42.198Z,2.80
2023-04-26T16:26:09.375Z,4.25
2023-04-26T16:28:36.242Z,6.45
2023-04-26T16:31:02.862Z,3.78
2023-04-26T16:33:29.813Z,5.55
2023-04-26T16:35:58.580Z,7.65
2023-04-26T16:38:25.206Z,4.43
2023-04-26T16:40:58.749Z,4.78
2023-04-26T16:43:30.257Z,6.22
2023-04-26T16:46:04.501Z,4.40
2023-04-26T16:48:32.724Z,7.53
2023-04-26T16:51:00.382Z,4.50
2023-04-26T16:53:27.120Z,4.03
2023-04-26T16:55:53.713Z,3.83
2023-04-26T16:58:21.471Z,4.68
2023-04-26T17:00:48.961Z,5.22
2023-04-26T17:03:39.263Z,4.85
2023-04-26T17:06:26.576Z,3.65
2023-04-26T17:09:01.024Z,6.30
2023-04-26T17:11:32.198Z,4.13
2023-04-26T17:14:04.135Z,6.55
2023-04-26T17:16:45.466Z,5.85
2023-04-26T17:19:14.567Z,6.68
2023-04-26T17:21:42.914Z,6.85
2023-04-26T17:24:10.915Z,3.70
2023-04-26T17:26:42.115Z,5.35
2023-04-26T17:29:13.003Z,6.65
2023-04-26T17:31:44.996Z,4.88
2023-04-26T17:34:21.534Z,6.30
2023-04-26T17:36:53.252Z,6.30
2023-04-26T17:39:19.826Z,8.05
2023-04-26T17:41:57.988Z,8.23
2023-04-26T17:44:31.070Z,4.78
2023-04-26T17:47:06.156Z,7.53
2023-04-26T17:49:33.491Z,5.97
2023-04-26T17:52:04.497Z,4.60
2023-04-26T18:04:19.417Z,5.90
2023-04-26T18:06:46.184Z,2.85
2023-04-26T18:11:47.938Z,5.32
2023-04-26T18:14:20.479Z,5.38
2023-04-26T18:16:47.156Z,5.47
2023-04-26T18:19:27.917Z,3.63
2023-04-26T18:22:27.254Z,4.10
2023-04-26T18:24:59.679Z,6.95
2023-04-26T18:27:26.046Z,5.70
2023-04-26T18:29:52.609Z,3.70
2023-04-26T18:32:19.261Z,5.07
2023-04-26T18:34:46.549Z,5.20
2023-04-26T18:37:12.911Z,7.03
2023-04-26T18:39:48.755Z,4.10
2023-04-26T18:42:15.226Z,6.80
2023-04-26T18:44:41.566Z,5.50
2023-04-26T18:47:07.983Z,5.63
2023-04-26T18:49:34.384Z,5.65
2023-04-26T18:52:01.582Z,4.75
2023-04-26T18:54:27.995Z,5.00
2023-04-26T18:56:54.484Z,6.25
2023-04-26T18:59:20.905Z,4.03
2023-04-26T19:01:49.026Z,7.38
2023-04-26T19:04:15.856Z,3.42
2023-04-26T19:06:42.283Z,6.38
2023-04-26T19:09:11.795Z,6.55
2023-04-26T19:11:38.429Z,4.43
2023-04-26T19:14:04.828Z,5.63
2023-04-26T19:16:35.295Z,4.40
2023-04-26T19:19:01.912Z,4.47
2023-04-26T19:21:28.307Z,4.03
2023-04-26T19:23:56.540Z,5.88
2023-04-26T19:26:22.931Z,5.07
2023-04-26T19:28:49.495Z,3.75
2023-04-26T19:31:15.921Z,6.13
2023-04-26T19:33:42.383Z,5.75
2023-04-26T19:36:09.668Z,5.82
2023-04-26T19:38:36.031Z,4.25
2023-04-26T19:41:02.452Z,4.75
2023-04-26T19:43:29.101Z,5.13
2023-04-26T19:45:55.473Z,6.40
2023-04-26T19:48:21.840Z,3.53
2023-04-26T19:50:48.191Z,6.60
2023-04-26T19:53:14.898Z,9.23
2023-04-26T19:55:42.294Z,6.00
2023-04-26T19:58:10.488Z,5.35
2023-04-26T20:00:38.108Z,7.75
2023-04-26T20:03:05.389Z,5.47
2023-04-26T20:05:32.162Z,4.82
2023-04-26T20:07:58.568Z,5.43
2023-04-26T20:10:25.056Z,3.97
2023-04-26T20:12:51.781Z,4.10
2023-04-26T20:15:18.202Z,4.18
2023-04-26T20:17:44.706Z,6.60
2023-04-26T20:20:12.613Z,4.65
2023-04-26T20:22:40.253Z,6.15
2023-04-26T20:25:07.274Z,6.32
2023-04-26T20:27:33.996Z,6.35
2023-04-26T20:30:00.548Z,5.60
2023-04-26T20:32:27.035Z,6.32
2023-04-26T20:34:53.582Z,6.00
2023-04-26T20:37:19.982Z,4.28
2023-04-26T20:39:46.388Z,6.10
2023-04-26T20:42:12.946Z,5.82
2023-04-26T20:44:39.285Z,4.97
2023-04-26T20:47:05.932Z,6.82
2023-04-26T20:49:32.329Z,8.48
2023-04-26T20:51:58.704Z,6.22
2023-04-26T20:54:25.123Z,5.97
2023-04-26T20:56:51.585Z,5.13
2023-04-26T20:59:18.195Z,5.95
2023-04-26T21:01:44.558Z,7.55
2023-04-26T21:04:11.181Z,7.28
2023-04-26T21:06:37.863Z,8.07
2023-04-26T21:09:05.210Z,6.68
2023-04-26T21:11:31.661Z,8.60
2023-04-26T21:13:58.801Z,6.65
2023-04-26T21:16:25.358Z,6.35
2023-04-26T21:18:52.715Z,5.57
2023-04-26T21:21:19.106Z,7.03
2023-04-26T21:23:45.477Z,8.10
2023-04-26T21:26:11.807Z,5.45
2023-04-26T21:28:38.149Z,6.47
2023-04-26T21:31:06.373Z,6.22
2023-04-26T21:33:33.701Z,7.20
2023-04-26T21:36:00.555Z,8.93
2023-04-26T21:38:27.249Z,8.30
2023-04-26T21:40:53.628Z,9.75
2023-04-26T21:43:21.522Z,5.70
2023-04-26T21:45:50.260Z,5.57
2023-04-26T21:48:16.850Z,8.73
2023-04-26T21:50:43.370Z,4.93
2023-04-26T21:53:09.943Z,7.57
2023-04-26T21:55:36.363Z,7.63
2023-04-26T21:58:05.449Z,6.80
2023-04-26T22:00:31.945Z,5.28
2023-04-26T22:02:58.621Z,8.75
2023-04-26T22:05:29.230Z,7.25
2023-04-26T22:07:56.050Z,6.93
2023-04-26T22:10:22.510Z,9.00
2023-04-26T22:12:48.956Z,6.63
2023-04-26T22:15:15.616Z,6.78
2023-04-26T22:17:42.087Z,6.53
2023-04-26T22:20:12.515Z,6.85
2023-04-26T22:22:39.364Z,5.35
2023-04-26T22:25:06.280Z,6.05
2023-04-26T22:27:32.877Z,5.35
2023-04-26T22:30:06.226Z,5.88
2023-04-26T22:32:35.813Z,6.03
2023-04-26T22:35:02.222Z,8.32
2023-04-26T22:37:28.607Z,6.60
2023-04-26T22:39:56.332Z,12.98
2023-04-26T22:42:22.781Z,6.18
2023-04-26T22:44:49.404Z,5.90
2023-04-26T22:47:18.382Z,6.30
2023-04-26T22:49:44.772Z,5.60
2023-04-26T22:52:20.209Z,7.22
2023-04-26T22:54:54.569Z,5.47
2023-04-26T22:57:21.379Z,6.30
2023-04-26T22:59:48.092Z,4.82
2023-04-26T23:02:15.419Z,7.75
2023-04-26T23:04:42.134Z,6.43
2023-04-26T23:07:08.678Z,7.63
2023-04-26T23:09:35.294Z,8.15
2023-04-26T23:12:03.400Z,7.10
2023-04-26T23:14:30.393Z,6.50
2023-04-26T23:16:58.682Z,8.35
2023-04-26T23:19:26.239Z,7.35
2023-04-26T23:21:53.043Z,7.18
2023-04-26T23:24:19.480Z,6.90
2023-04-26T23:26:46.006Z,7.43
2023-04-26T23:29:13.215Z,8.15
2023-04-26T23:31:39.924Z,7.00
2023-04-26T23:34:06.279Z,6.90
2023-04-26T23:36:33.341Z,6.15
2023-04-26T23:38:59.853Z,6.10
2023-04-26T23:41:26.314Z,6.25
2023-04-26T23:43:52.781Z,6.35
2023-04-26T23:46:19.253Z,5.90
2023-04-26T23:48:45.723Z,8.25
2023-04-26T23:51:12.114Z,5.88
2023-04-26T23:53:41.211Z,5.97
2023-04-26T23:56:07.735Z,7.35
2023-04-26T23:58:34.166Z,6.13
